Time;durP1;ratioP1;P1;durP2;ratioP2;P2;SDS_P1;SDS_P2;PMS_P1;PMS_P2;Temp;Humidity;BMP_temperature;BMP_pressure;BME280_temperature;BME280_humidity;BME280_pressure;Samples;Min_cycle;Max_cycle;Signal;HPM_P1;HPM_P2
2023/04/22 00:01:40;;;;;;;18.08;15.55;;;11.60;99.90;;;;;;5073485;28;20041;-79
2023/04/22 00:04:06;;;;;;;19.67;15.38;;;11.50;99.90;;;;;;5073540;28;20077;-79
2023/04/22 00:06:32;;;;;;;16.80;15.00;;;11.40;99.90;;;;;;5073372;28;20067;-79
2023/04/22 00:08:57;;;;;;;14.50;13.00;;;11.40;99.90;;;;;;5089443;28;20123;-79
2023/04/22 00:11:23;;;;;;;14.45;12.93;;;11.30;99.90;;;;;;5093597;28;20097;-79
2023/04/22 00:13:48;;;;;;;13.90;12.30;;;11.30;99.90;;;;;;5093365;28;20032;-79
2023/04/22 00:16:15;;;;;;;13.05;11.57;;;11.30;99.90;;;;;;5093520;28;20044;-79
2023/04/22 00:18:40;;;;;;;14.35;12.43;;;11.30;99.90;;;;;;5092211;28;20044;-79
2023/04/22 00:21:06;;;;;;;13.80;11.85;;;11.30;99.90;;;;;;5093638;28;20100;-79
2023/04/22 00:23:32;;;;;;;12.90;11.00;;;11.30;99.90;;;;;;5093077;28;20388;-80
2023/04/22 00:26:00;;;;;;;12.13;10.48;;;11.20;99.90;;;;;;5093166;28;20479;-79
2023/04/22 00:28:26;;;;;;;11.80;10.18;;;11.20;99.90;;;;;;5093484;28;20119;-79
2023/04/22 00:30:52;;;;;;;12.55;10.57;;;11.20;99.90;;;;;;5093423;28;20119;-79
2023/04/22 00:33:17;;;;;;;12.52;10.82;;;11.20;99.90;;;;;;5093443;28;20078;-79
2023/04/22 00:35:45;;;;;;;12.85;10.38;;;11.20;99.90;;;;;;5093364;28;20051;-80
2023/04/22 00:38:11;;;;;;;12.77;10.23;;;11.20;99.90;;;;;;5093099;28;20506;-80
2023/04/22 00:40:37;;;;;;;12.38;10.18;;;11.20;99.90;;;;;;5093719;28;20131;-80
2023/04/22 00:43:03;;;;;;;11.75;10.00;;;11.10;99.90;;;;;;5097354;28;20177;-79
2023/04/22 00:45:29;;;;;;;12.27;10.65;;;11.10;99.90;;;;;;5095897;28;20044;-80
2023/04/22 00:47:55;;;;;;;11.90;10.70;;;11.00;99.90;;;;;;5096892;28;20051;-80
2023/04/22 00:50:21;;;;;;;10.88;9.75;;;11.00;99.90;;;;;;5096989;28;20040;-80
2023/04/22 00:52:46;;;;;;;10.88;9.70;;;10.90;99.90;;;;;;5095709;28;20055;-80
2023/04/22 00:55:12;;;;;;;14.55;10.43;;;10.90;99.90;;;;;;5096898;28;20075;-80
2023/04/22 00:57:39;;;;;;;12.40;11.10;;;10.80;99.90;;;;;;5096870;28;20063;-79
2023/04/22 01:00:05;;;;;;;12.25;10.38;;;10.80;99.90;;;;;;5096714;28;20046;-79
2023/04/22 01:02:31;;;;;;;13.40;10.85;;;10.70;99.90;;;;;;5096797;28;20062;-80
2023/04/22 01:04:58;;;;;;;14.88;10.63;;;10.70;99.90;;;;;;5096838;28;20044;-79
2023/04/22 01:07:24;;;;;;;13.60;10.00;;;10.70;99.90;;;;;;5096373;28;20047;-80
2023/04/22 01:09:50;;;;;;;11.50;10.30;;;10.70;99.90;;;;;;5095491;28;20391;-79
2023/04/22 01:12:15;;;;;;;13.77;10.63;;;10.60;99.90;;;;;;5096590;28;20048;-80
2023/04/22 01:14:41;;;;;;;12.15;10.85;;;10.50;99.90;;;;;;5095250;28;20115;-80
2023/04/22 01:17:08;;;;;;;12.00;10.80;;;10.50;99.90;;;;;;5096514;28;20101;-80
2023/04/22 01:19:34;;;;;;;13.30;10.52;;;10.50;99.90;;;;;;5096430;28;20047;-79
2023/04/22 01:22:01;;;;;;;11.85;10.35;;;10.50;99.90;;;;;;5096175;28;20041;-79
2023/04/22 01:24:27;;;;;;;12.27;10.68;;;10.40;99.90;;;;;;5096391;28;20139;-80
2023/04/22 01:26:53;;;;;;;13.05;10.65;;;10.40;99.90;;;;;;5096282;28;20127;-80
2023/04/22 01:29:18;;;;;;;12.38;10.95;;;10.30;99.90;;;;;;5096242;28;20044;-80
2023/04/22 01:31:45;;;;;;;13.10;10.73;;;10.30;99.90;;;;;;5096226;28;20051;-80
2023/04/22 01:34:10;;;;;;;12.95;10.77;;;10.30;99.90;;;;;;5096204;28;20044;-80
2023/04/22 01:36:36;;;;;;;12.43;10.45;;;10.20;99.90;;;;;;5096090;28;20032;-80
2023/04/22 01:39:02;;;;;;;13.55;11.50;;;10.20;99.90;;;;;;5095845;28;20392;-80
2023/04/22 01:41:28;;;;;;;14.80;11.85;;;10.20;99.90;;;;;;5096005;28;20040;-80
2023/04/22 01:43:56;;;;;;;12.77;11.43;;;10.20;99.90;;;;;;5095977;28;20356;-80
2023/04/22 01:46:22;;;;;;;13.35;11.68;;;10.10;99.90;;;;;;5095858;28;20039;-80
2023/04/22 01:48:51;;;;;;;12.75;11.43;;;10.10;99.90;;;;;;5095871;28;20089;-80
2023/04/22 01:51:19;;;;;;;13.20;11.20;;;10.00;99.90;;;;;;5096369;28;20040;-80
2023/04/22 01:53:46;;;;;;;16.05;12.32;;;10.10;99.90;;;;;;5095328;28;20036;-81
2023/04/22 01:56:11;;;;;;;13.40;12.00;;;10.00;99.90;;;;;;5095748;28;20123;-80
2023/04/22 01:58:39;;;;;;;13.45;11.90;;;10.00;99.90;;;;;;5095722;28;20075;-80
2023/04/22 02:01:05;;;;;;;13.93;12.02;;;10.00;99.90;;;;;;5095690;28;20123;-80
2023/04/22 02:03:31;;;;;;;14.00;12.35;;;10.00;99.90;;;;;;5095374;28;20480;-80
2023/04/22 02:05:57;;;;;;;14.93;12.85;;;10.00;99.90;;;;;;5095460;28;20094;-81
2023/04/22 02:08:22;;;;;;;14.82;12.68;;;10.00;99.90;;;;;;5095489;28;20040;-80
2023/04/22 02:10:48;;;;;;;15.52;13.25;;;9.90;99.90;;;;;;5095466;28;20063;-80
2023/04/22 02:13:14;;;;;;;13.07;11.70;;;9.90;99.90;;;;;;5095514;28;20438;-80
2023/04/22 02:15:40;;;;;;;14.23;12.73;;;9.90;99.90;;;;;;5095357;28;20047;-80
2023/04/22 02:18:06;;;;;;;16.85;12.77;;;9.90;99.90;;;;;;5095301;28;20093;-80
2023/04/22 02:20:32;;;;;;;15.85;13.15;;;9.90;99.90;;;;;;5095256;28;20040;-80
2023/04/22 02:22:58;;;;;;;15.48;13.60;;;9.80;99.90;;;;;;5094998;28;20448;-80
2023/04/22 02:25:26;;;;;;;15.73;13.70;;;9.70;99.90;;;;;;5095019;28;20032;-80
2023/04/22 02:27:52;;;;;;;16.30;13.93;;;9.70;99.90;;;;;;5095011;28;20491;-80
2023/04/22 02:30:18;;;;;;;18.27;15.77;;;9.70;99.90;;;;;;5095037;28;20062;-80
2023/04/22 02:32:43;;;;;;;17.95;14.32;;;9.70;99.90;;;;;;5095004;28;20040;-80
2023/04/22 02:35:10;;;;;;;16.27;14.57;;;9.70;99.90;;;;;;5095013;28;20051;-80
2023/04/22 02:37:36;;;;;;;16.90;14.25;;;9.70;99.90;;;;;;5095488;28;20044;-80
2023/04/22 02:40:02;;;;;;;18.58;14.75;;;9.60;99.90;;;;;;5094931;28;20040;-80
2023/04/22 02:42:28;;;;;;;17.42;15.57;;;9.50;99.90;;;;;;5094707;28;20447;-80
2023/04/22 02:44:54;;;;;;;18.70;14.57;;;9.60;99.90;;;;;;5094798;28;20538;-80
2023/04/22 02:47:20;;;;;;;19.17;15.02;;;9.50;99.90;;;;;;5094632;28;20038;-80
2023/04/22 02:49:46;;;;;;;17.55;14.13;;;9.50;99.90;;;;;;5094668;28;20032;-80
2023/04/22 02:52:11;;;;;;;17.33;14.50;;;9.50;99.90;;;;;;5094675;28;20046;-80
2023/04/22 02:54:37;;;;;;;16.85;13.68;;;9.50;99.90;;;;;;5094632;28;20479;-80
2023/04/22 02:57:02;;;;;;;17.02;13.70;;;9.40;99.90;;;;;;5094585;28;20368;-80
2023/04/22 02:59:29;;;;;;;15.70;13.82;;;9.40;99.90;;;;;;5094512;28;20047;-80
2023/04/22 03:01:55;;;;;;;19.80;15.23;;;9.40;99.90;;;;;;5094416;28;20526;-80
2023/04/22 03:04:20;;;;;;;16.48;14.68;;;9.40;99.90;;;;;;5094306;28;20079;-80
2023/04/22 03:06:50;;;;;;;17.63;14.45;;;9.40;99.90;;;;;;5094384;28;20047;-80
2023/04/22 03:09:16;;;;;;;18.45;14.98;;;9.30;99.90;;;;;;5094369;28;20048;-80
2023/04/22 03:11:42;;;;;;;18.33;14.43;;;9.30;99.90;;;;;;5094514;28;20036;-80
2023/04/22 03:14:08;;;;;;;16.25;14.15;;;9.30;99.90;;;;;;5094312;28;20058;-80
2023/04/22 03:16:33;;;;;;;18.27;13.90;;;9.30;99.90;;;;;;5093214;28;20052;-80
2023/04/22 03:18:59;;;;;;;19.77;15.10;;;9.30;99.90;;;;;;5093987;28;20028;-80
2023/04/22 03:21:25;;;;;;;17.50;14.13;;;9.30;99.90;;;;;;5094182;28;20040;-80
2023/04/22 03:23:51;;;;;;;17.75;14.75;;;9.20;99.90;;;;;;5093835;28;20104;-80
2023/04/22 03:26:16;;;;;;;18.55;14.68;;;9.20;99.90;;;;;;5093191;28;20051;-80
2023/04/22 03:28:42;;;;;;;20.90;15.15;;;9.20;99.90;;;;;;5094003;28;20044;-81
2023/04/22 03:31:07;;;;;;;17.27;14.88;;;9.20;99.90;;;;;;5094006;28;20537;-81
2023/04/22 03:33:33;;;;;;;16.60;14.77;;;9.20;99.90;;;;;;5093967;28;20414;-81
2023/04/22 03:35:59;;;;;;;18.02;16.05;;;9.20;99.90;;;;;;5094019;28;20040;-81
2023/04/22 03:38:24;;;;;;;17.23;14.43;;;9.20;99.90;;;;;;5093921;28;20039;-81
2023/04/22 03:40:50;;;;;;;18.40;14.55;;;9.10;99.90;;;;;;5093906;28;20048;-81
2023/04/22 03:43:15;;;;;;;17.88;14.65;;;9.10;99.90;;;;;;5093912;28;20054;-81
2023/04/22 03:45:41;;;;;;;18.33;15.77;;;9.10;99.90;;;;;;5093697;28;20044;-81
2023/04/22 03:48:07;;;;;;;19.05;16.15;;;9.00;99.90;;;;;;5093761;28;20044;-81
2023/04/22 03:50:32;;;;;;;18.15;15.88;;;9.00;99.90;;;;;;5093827;28;20040;-81
2023/04/22 03:52:58;;;;;;;19.52;17.17;;;8.90;99.90;;;;;;5093782;28;20052;-80
2023/04/22 03:55:24;;;;;;;19.75;16.25;;;8.90;99.90;;;;;;5093852;28;20193;-80
2023/04/22 03:57:49;;;;;;;18.58;16.58;;;8.90;99.90;;;;;;5093710;28;20040;-81
2023/04/22 04:00:15;;;;;;;20.60;17.45;;;8.80;99.90;;;;;;5093792;28;20047;-81
2023/04/22 04:02:41;;;;;;;20.05;17.13;;;8.80;99.90;;;;;;5093733;28;20048;-81
2023/04/22 04:05:07;;;;;;;20.20;16.52;;;8.80;99.90;;;;;;5092412;28;20044;-81
2023/04/22 04:07:33;;;;;;;20.98;17.33;;;8.80;99.90;;;;;;5093589;28;20032;-81
2023/04/22 04:09:59;;;;;;;19.00;16.15;;;8.70;99.90;;;;;;5093467;28;20036;-81
2023/04/22 04:12:24;;;;;;;17.17;15.35;;;8.60;99.90;;;;;;5093488;28;20048;-81
2023/04/22 04:14:50;;;;;;;17.85;15.95;;;8.60;99.90;;;;;;5093304;28;20036;-80
2023/04/22 04:17:15;;;;;;;19.40;16.27;;;8.50;99.90;;;;;;5096167;28;20032;-79
2023/04/22 04:19:41;;;;;;;18.60;16.02;;;8.50;99.90;;;;;;5096316;28;20136;-80
2023/04/22 04:22:07;;;;;;;19.95;16.27;;;8.50;99.90;;;;;;5097351;28;20036;-81
2023/04/22 04:24:40;;;;;;;22.40;17.70;;;8.40;99.90;;;;;;5097484;28;20052;-81
2023/04/22 04:27:07;;;;;;;26.50;20.25;;;8.30;99.90;;;;;;5097303;28;20479;-81
2023/04/22 04:29:33;;;;;;;24.98;20.33;;;8.40;99.90;;;;;;5097366;28;20044;-81
2023/04/22 04:31:59;;;;;;;21.83;18.50;;;8.50;99.90;;;;;;5097040;28;20554;-81
2023/04/22 04:34:25;;;;;;;24.15;19.65;;;8.40;99.90;;;;;;5097101;28;20131;-81
2023/04/22 04:36:50;;;;;;;25.42;19.80;;;8.50;99.90;;;;;;5097263;28;20360;-80
2023/04/22 04:39:16;;;;;;;24.05;19.55;;;8.50;99.90;;;;;;5097254;28;20438;-80
2023/04/22 04:41:42;;;;;;;21.90;19.27;;;8.40;99.90;;;;;;5097229;28;20123;-80
2023/04/22 04:44:09;;;;;;;23.85;20.33;;;8.40;99.90;;;;;;5096935;28;20074;-81
2023/04/22 04:46:36;;;;;;;25.52;20.23;;;8.40;99.90;;;;;;5095588;28;20048;-80
2023/04/22 04:49:03;;;;;;;24.20;19.45;;;8.40;99.90;;;;;;5097197;28;20036;-81
2023/04/22 04:51:31;;;;;;;25.67;19.85;;;8.40;99.90;;;;;;5096911;28;20043;-81
2023/04/22 04:53:57;;;;;;;23.52;19.50;;;8.40;99.90;;;;;;5096849;28;20040;-81
2023/04/22 04:56:22;;;;;;;25.70;19.23;;;8.40;99.90;;;;;;5096569;28;20112;-81
2023/04/22 04:58:48;;;;;;;22.00;18.63;;;8.50;99.90;;;;;;5096519;28;20055;-80
2023/04/22 05:01:14;;;;;;;24.88;19.80;;;8.50;99.90;;;;;;5096771;28;20036;-80
2023/04/22 05:03:39;;;;;;;25.33;19.67;;;8.50;99.90;;;;;;5096521;28;20056;-80
2023/04/22 05:06:06;;;;;;;26.00;19.65;;;8.60;99.90;;;;;;5095127;28;20499;-80
2023/04/22 05:08:32;;;;;;;31.98;23.65;;;8.70;99.90;;;;;;5096432;28;20044;-80
2023/04/22 05:10:58;;;;;;;29.25;21.30;;;8.70;99.90;;;;;;5096535;28;20054;-80
2023/04/22 05:13:25;;;;;;;27.27;21.83;;;8.80;99.90;;;;;;5096542;28;20036;-80
2023/04/22 05:15:50;;;;;;;26.50;20.33;;;8.90;99.90;;;;;;5096201;28;20502;-80
2023/04/22 05:18:16;;;;;;;25.02;18.75;;;9.00;99.90;;;;;;5096245;28;20074;-80
2023/04/22 05:20:42;;;;;;;25.38;18.88;;;9.10;99.90;;;;;;5096364;28;20044;-80
2023/04/22 05:23:08;;;;;;;27.08;20.17;;;9.10;99.90;;;;;;5094638;28;20052;-80
2023/04/22 05:25:33;;;;;;;23.27;18.98;;;9.30;99.90;;;;;;5095867;28;20137;-80
2023/04/22 05:27:59;;;;;;;25.75;19.55;;;9.30;99.90;;;;;;5094972;28;20189;-81
2023/04/22 05:30:25;;;;;;;22.92;19.20;;;9.40;99.90;;;;;;5096231;28;20028;-81
2023/04/22 05:32:51;;;;;;;23.67;19.33;;;9.60;99.90;;;;;;5096012;28;20533;-80
2023/04/22 05:35:17;;;;;;;20.63;17.85;;;9.70;99.90;;;;;;5096099;28;20040;-81
2023/04/22 05:37:42;;;;;;;20.98;17.70;;;9.80;99.90;;;;;;5096134;28;20122;-81
2023/04/22 05:40:08;;;;;;;23.70;19.00;;;10.00;99.90;;;;;;5094831;28;20070;-80
2023/04/22 05:42:34;;;;;;;24.15;17.90;;;10.10;99.90;;;;;;5096005;28;20058;-80
2023/04/22 05:45:00;;;;;;;21.98;18.23;;;10.20;99.90;;;;;;5095853;28;20051;-80
2023/04/22 05:47:26;;;;;;;20.90;17.23;;;10.40;99.90;;;;;;5094573;28;20105;-80
2023/04/22 05:49:51;;;;;;;21.25;18.13;;;10.50;99.90;;;;;;5097643;28;20456;-80
2023/04/22 05:52:17;;;;;;;19.27;16.83;;;10.50;99.90;;;;;;5094599;28;20139;-80
2023/04/22 05:54:43;;;;;;;23.25;18.52;;;10.60;99.90;;;;;;5094684;28;20101;-80
2023/04/22 05:57:09;;;;;;;21.55;18.35;;;10.70;99.90;;;;;;5094433;28;20055;-80
2023/04/22 05:59:34;;;;;;;25.35;18.38;;;10.70;99.90;;;;;;5095710;28;20093;-81
2023/04/22 06:02:00;;;;;;;20.95;18.20;;;10.80;99.90;;;;;;5094455;28;20044;-80
2023/04/22 06:04:26;;;;;;;21.08;17.05;;;10.80;99.90;;;;;;5095343;28;20482;-80
2023/04/22 06:06:52;;;;;;;23.00;18.63;;;10.60;99.90;;;;;;5095468;28;20047;-81
2023/04/22 06:09:19;;;;;;;21.40;17.92;;;10.60;99.90;;;;;;5095456;28;20040;-80
2023/04/22 06:11:45;;;;;;;21.83;18.77;;;10.40;99.90;;;;;;5095463;28;20044;-80
2023/04/22 06:14:11;;;;;;;23.48;18.30;;;10.40;99.90;;;;;;5095441;28;20035;-80
2023/04/22 06:16:38;;;;;;;23.48;18.67;;;10.30;99.90;;;;;;5094000;28;20052;-80
2023/04/22 06:19:04;;;;;;;20.48;18.27;;;10.20;99.90;;;;;;5095328;28;20040;-80
2023/04/22 06:21:32;;;;;;;24.38;18.85;;;10.10;99.90;;;;;;5093857;28;20059;-80
2023/04/22 06:24:05;;;;;;;21.23;18.50;;;10.10;99.90;;;;;;5093367;28;20047;-80
2023/04/22 06:26:32;;;;;;;23.23;18.98;;;10.10;99.90;;;;;;5094947;28;20087;-80
2023/04/22 06:28:57;;;;;;;21.73;18.00;;;10.00;99.90;;;;;;5093449;28;20044;-80
2023/04/22 06:31:23;;;;;;;25.17;20.50;;;10.00;99.90;;;;;;5094991;28;20094;-78
2023/04/22 06:33:49;;;;;;;25.50;20.05;;;10.10;99.90;;;;;;5093839;28;20040;-79
2023/04/22 06:36:14;;;;;;;24.15;19.48;;;10.30;99.90;;;;;;5093601;28;20040;-80
2023/04/22 06:38:40;;;;;;;23.83;19.60;;;10.50;99.90;;;;;;5094232;28;20047;-80
2023/04/22 06:41:06;;;;;;;23.90;20.80;;;10.70;99.90;;;;;;5094759;28;20036;-79
2023/04/22 06:43:31;;;;;;;24.48;19.27;;;10.90;99.90;;;;;;5093756;28;20449;-80
2023/04/22 06:45:57;;;;;;;22.27;19.80;;;11.10;99.90;;;;;;5093110;28;20047;-81
2023/04/22 06:48:23;;;;;;;21.70;18.63;;;11.20;99.90;;;;;;5093440;28;20047;-80
2023/04/22 06:50:49;;;;;;;21.42;18.25;;;11.40;99.90;;;;;;5094414;28;20052;-89
2023/04/22 06:53:14;;;;;;;22.30;17.73;;;11.60;99.90;;;;;;5086288;28;20036;-79
2023/04/22 06:55:40;;;;;;;21.40;17.60;;;11.70;99.90;;;;;;5074095;28;20045;-79
2023/04/22 06:58:06;;;;;;;21.08;18.23;;;11.90;99.90;;;;;;5073743;28;20036;-80
2023/04/22 07:00:31;;;;;;;19.58;17.08;;;11.90;99.90;;;;;;5072466;28;20133;-79
2023/04/22 07:02:57;;;;;;;19.67;16.42;;;12.00;99.90;;;;;;5073992;28;20087;-80
2023/04/22 07:05:23;;;;;;;20.13;16.35;;;11.90;99.90;;;;;;5072962;28;20388;-80
2023/04/22 07:07:48;;;;;;;20.80;16.30;;;11.80;99.90;;;;;;5073850;28;20052;-80
2023/04/22 07:10:14;;;;;;;22.85;17.75;;;11.60;99.90;;;;;;5073879;28;20036;-79
2023/04/22 07:12:40;;;;;;;20.08;16.75;;;11.60;99.90;;;;;;5073726;28;20052;-79
2023/04/22 07:15:06;;;;;;;19.40;17.20;;;11.60;99.90;;;;;;5073849;28;20132;-81
2023/04/22 07:17:32;;;;;;;20.52;17.08;;;11.70;99.90;;;;;;5073781;28;20044;-79
2023/04/22 07:19:58;;;;;;;17.73;15.82;;;11.70;99.90;;;;;;5073715;28;20392;-79
2023/04/22 07:22:26;;;;;;;18.95;15.82;;;11.60;99.90;;;;;;5071867;28;20064;-79
2023/04/22 07:24:52;;;;;;;21.33;16.75;;;11.60;99.90;;;;;;5072139;28;20056;-83
2023/04/22 07:27:18;;;;;;;21.92;15.85;;;11.70;99.90;;;;;;5073421;28;20044;-80
2023/04/22 07:29:47;;;;;;;20.33;16.90;;;11.70;99.90;;;;;;5073420;28;20091;-86
2023/04/22 07:32:12;;;;;;;20.00;15.63;;;11.70;99.90;;;;;;5073252;28;20512;-80
2023/04/22 07:34:38;;;;;;;20.83;16.50;;;11.70;99.90;;;;;;5072238;28;20136;-79
2023/04/22 07:37:06;;;;;;;20.33;15.60;;;11.80;99.90;;;;;;5073397;28;20029;-78
2023/04/22 07:39:31;;;;;;;19.63;15.80;;;11.80;99.90;;;;;;5073361;28;20051;-79
2023/04/22 07:41:57;;;;;;;20.10;15.68;;;11.80;99.90;;;;;;5073462;28;20041;-80
2023/04/22 07:44:23;;;;;;;18.45;15.82;;;11.80;99.90;;;;;;5073103;28;20400;-80
2023/04/22 07:46:49;;;;;;;17.95;15.63;;;11.80;99.90;;;;;;5073353;28;20044;-88
2023/04/22 07:49:16;;;;;;;19.27;16.27;;;11.90;99.90;;;;;;5071869;28;20045;-81
2023/04/22 07:51:44;;;;;;;21.33;15.30;;;12.00;99.90;;;;;;5072405;28;20051;-79
2023/04/22 07:54:10;;;;;;;18.42;15.30;;;12.10;99.90;;;;;;5073200;28;20037;-79
2023/04/22 07:56:36;;;;;;;18.08;15.25;;;12.10;99.90;;;;;;5072933;28;20037;-79
2023/04/22 07:59:02;;;;;;;17.48;14.00;;;12.20;99.90;;;;;;5073317;28;20153;-79
2023/04/22 08:01:28;;;;;;;17.88;15.35;;;12.20;99.90;;;;;;5073215;28;20525;-79
2023/04/22 08:03:53;;;;;;;18.33;15.18;;;12.40;99.90;;;;;;5073236;28;20052;-79
2023/04/22 08:06:19;;;;;;;20.63;14.82;;;12.50;99.90;;;;;;5073122;28;20492;-79
2023/04/22 08:08:45;;;;;;;17.77;14.60;;;12.50;99.90;;;;;;5073193;28;20133;-80
2023/04/22 08:11:11;;;;;;;16.85;14.07;;;12.70;99.90;;;;;;5072972;28;20052;-80
2023/04/22 08:13:36;;;;;;;21.45;16.38;;;12.70;99.90;;;;;;5072994;28;20040;-80
2023/04/22 08:16:02;;;;;;;15.10;13.27;;;12.90;99.90;;;;;;5073130;28;20080;-80
2023/04/22 08:18:28;;;;;;;15.70;13.45;;;13.00;99.90;;;;;;5072934;28;20072;-81
2023/04/22 08:20:55;;;;;;;18.25;13.95;;;13.10;99.90;;;;;;5073056;28;20036;-80
2023/04/22 08:23:21;;;;;;;16.98;13.48;;;13.20;99.90;;;;;;5071467;28;20118;-80
2023/04/22 08:25:48;;;;;;;17.52;13.80;;;13.20;99.90;;;;;;5072945;28;20106;-80
2023/04/22 08:28:14;;;;;;;15.85;12.43;;;13.40;99.90;;;;;;5073049;28;20076;-83
2023/04/22 08:30:40;;;;;;;17.13;13.48;;;13.50;99.90;;;;;;5072754;28;20064;-80
2023/04/22 08:33:05;;;;;;;17.77;14.70;;;13.70;99.90;;;;;;5072981;28;20134;-79
2023/04/22 08:35:36;;;;;;;17.25;13.02;;;13.80;99.90;;;;;;5071824;28;20555;-78
2023/04/22 08:38:02;;;;;;;16.02;13.73;;;13.90;99.90;;;;;;5072305;28;20487;-79
2023/04/22 08:40:28;;;;;;;15.32;12.68;;;14.00;99.90;;;;;;5071579;28;20040;-79
2023/04/22 08:42:57;;;;;;;14.93;13.20;;;14.00;99.90;;;;;;5072691;28;20515;-79
2023/04/22 08:45:23;;;;;;;15.82;12.80;;;14.10;99.90;;;;;;5072526;28;20407;-79
2023/04/22 08:47:49;;;;;;;16.38;13.73;;;14.20;99.90;;;;;;5072807;28;20044;-79
2023/04/22 08:50:15;;;;;;;15.98;13.00;;;14.20;99.90;;;;;;5072578;28;20510;-79
2023/04/22 08:52:42;;;;;;;14.88;12.25;;;14.30;99.90;;;;;;5072524;28;20131;-79
2023/04/22 08:55:08;;;;;;;15.65;12.27;;;14.50;99.90;;;;;;5072879;28;20036;-79
2023/04/22 08:57:37;;;;;;;14.70;11.85;;;14.70;99.90;;;;;;5072765;28;20040;-79
2023/04/22 09:00:03;;;;;;;17.30;12.75;;;14.90;99.90;;;;;;5072441;28;20045;-79
2023/04/22 09:02:31;;;;;;;16.50;12.40;;;15.10;99.90;;;;;;5072834;28;20143;-79
2023/04/22 09:05:00;;;;;;;13.88;11.05;;;15.30;99.90;;;;;;5076177;28;20238;-79
2023/04/22 09:07:30;;;;;;;14.57;11.77;;;15.50;99.90;;;;;;5074725;28;20127;-80
2023/04/22 09:09:57;;;;;;;13.88;12.13;;;15.70;99.90;;;;;;5076318;28;20090;-79
2023/04/22 09:12:24;;;;;;;12.90;11.60;;;15.70;99.90;;;;;;5075915;28;20085;-79
2023/04/22 09:14:50;;;;;;;14.15;12.25;;;15.70;99.90;;;;;;5075785;28;20494;-78
2023/04/22 09:17:17;;;;;;;14.50;12.93;;;15.90;99.90;;;;;;5075777;28;20048;-79
2023/04/22 09:19:44;;;;;;;17.88;13.45;;;16.10;99.90;;;;;;5094566;28;20192;-79
2023/04/22 09:22:13;;;;;;;14.65;12.93;;;16.30;99.90;;;;;;5095997;28;20055;-78
2023/04/22 09:24:49;;;;;;;18.23;15.13;;;16.50;99.90;;;;;;5096249;28;20044;-78
2023/04/22 09:27:16;;;;;;;19.48;14.35;;;16.50;99.90;;;;;;5095621;28;20395;-78
2023/04/22 09:29:48;;;;;;;18.60;14.65;;;16.60;99.90;;;;;;5094636;28;20048;-78
2023/04/22 09:32:14;;;;;;;16.77;14.00;;;16.70;99.90;;;;;;5095804;28;20152;-79
2023/04/22 09:34:50;;;;;;;17.77;13.85;;;16.70;99.90;;;;;;5095631;28;20067;-78
2023/04/22 09:37:25;;;;;;;16.52;13.68;;;16.80;99.90;;;;;;5095773;28;20043;-79
2023/04/22 09:39:51;;;;;;;16.55;14.02;;;17.00;99.90;;;;;;5095197;28;20429;-78
2023/04/22 09:42:18;;;;;;;16.38;13.77;;;16.70;99.90;;;;;;5095731;28;20040;-79
2023/04/22 09:44:51;;;;;;;18.52;14.65;;;16.80;99.90;;;;;;5094063;28;20479;-79
2023/04/22 09:47:17;;;;;;;16.40;14.70;;;16.90;99.90;;;;;;5095639;28;20059;-80
2023/04/22 09:49:48;;;;;;;17.08;14.13;;;16.70;99.90;;;;;;5095521;28;20164;-79
2023/04/22 09:52:25;;;;;;;16.80;14.27;;;16.80;99.90;;;;;;5095331;28;20044;-79
2023/04/22 09:54:52;;;;;;;16.17;14.23;;;16.80;99.90;;;;;;5095130;28;20463;-77
2023/04/22 09:57:18;;;;;;;18.30;14.00;;;16.90;99.90;;;;;;5095080;28;20439;-84
2023/04/22 09:59:43;;;;;;;16.27;14.05;;;16.90;99.90;;;;;;5093692;28;20509;-79
2023/04/22 10:02:09;;;;;;;15.48;13.35;;;17.10;99.90;;;;;;5095068;28;20506;-79
2023/04/22 10:04:36;;;;;;;15.35;13.43;;;17.20;99.90;;;;;;5094920;28;20511;-79
2023/04/22 10:07:01;;;;;;;16.45;14.13;;;17.30;99.90;;;;;;5095071;28;20101;-79
2023/04/22 10:09:27;;;;;;;16.17;13.23;;;17.50;99.90;;;;;;5095025;28;20040;-78
2023/04/22 10:11:56;;;;;;;15.02;13.38;;;17.80;99.90;;;;;;5093577;28;20495;-78
2023/04/22 10:14:23;;;;;;;14.82;13.20;;;17.90;99.90;;;;;;5093923;28;20487;-78
2023/04/22 10:16:51;;;;;;;14.27;12.82;;;18.00;99.90;;;;;;5094667;28;20509;-78
2023/04/22 10:19:20;;;;;;;14.20;12.70;;;18.10;99.90;;;;;;5094549;28;20395;-78
2023/04/22 10:21:51;;;;;;;16.38;13.23;;;18.20;99.90;;;;;;5094794;28;20047;-78
2023/04/22 10:24:17;;;;;;;14.70;13.10;;;18.20;99.90;;;;;;5094485;28;20514;-78
2023/04/22 10:27:05;;;;;;;14.25;12.75;;;18.30;99.90;;;;;;5094789;28;20048;-78
2023/04/22 10:29:41;;;;;;;15.07;13.30;;;18.10;99.90;;;;;;5094855;28;20072;-79
2023/04/22 10:32:16;;;;;;;14.40;12.90;;;18.40;99.90;;;;;;5094393;28;20487;-79
2023/04/22 10:34:42;;;;;;;15.48;13.82;;;18.50;99.90;;;;;;5093069;28;20122;-79
2023/04/22 10:37:12;;;;;;;14.02;12.60;;;18.50;99.90;;;;;;5094601;28;20044;-78
2023/04/22 10:39:40;;;;;;;17.13;14.18;;;18.30;99.90;;;;;;5094524;28;20101;-79
2023/04/22 10:42:14;;;;;;;14.20;12.60;;;18.40;99.90;;;;;;5092963;28;20115;-78
2023/04/22 10:44:59;;;;;;;15.82;14.20;;;18.20;99.90;;;;;;5094324;28;20070;-78
2023/04/22 10:47:35;;;;;;;15.88;14.25;;;18.30;99.90;;;;;;5092869;28;20052;-79
2023/04/22 10:50:25;;;;;;;13.90;11.95;;;18.30;99.90;;;;;;5094193;28;20040;-78
2023/04/22 10:52:55;;;;;;;14.65;12.73;;;18.40;99.90;;;;;;5094302;28;20067;-78
2023/04/22 10:55:21;;;;;;;14.15;12.65;;;18.50;99.90;;;;;;5094116;28;20105;-78
2023/04/22 10:57:48;;;;;;;16.75;14.52;;;18.60;99.90;;;;;;5092913;28;20426;-78
2023/04/22 11:00:17;;;;;;;16.85;14.63;;;18.60;99.90;;;;;;5094075;28;20040;-78
2023/04/22 11:02:50;;;;;;;15.77;12.68;;;18.50;99.90;;;;;;5094018;28;20051;-77
2023/04/22 11:05:26;;;;;;;15.05;13.55;;;18.40;99.90;;;;;;5093669;28;20446;-78
2023/04/22 11:08:00;;;;;;;14.98;13.38;;;18.10;99.90;;;;;;5093957;28;20054;-77
2023/04/22 11:10:32;;;;;;;16.98;13.52;;;18.40;99.90;;;;;;5094076;28;20036;-76
2023/04/22 11:12:57;;;;;;;16.80;14.63;;;18.40;99.90;;;;;;5093646;28;20511;-76
2023/04/22 11:15:23;;;;;;;17.90;15.68;;;18.30;99.90;;;;;;5092628;28;20044;-78
2023/04/22 11:17:53;;;;;;;17.52;14.52;;;18.70;99.90;;;;;;5093554;28;20247;-78
2023/04/22 11:20:20;;;;;;;17.00;14.77;;;19.00;99.90;;;;;;5092361;28;20092;-77
2023/04/22 11:22:51;;;;;;;17.05;15.00;;;19.10;99.90;;;;;;5093493;28;20047;-78
2023/04/22 11:25:17;;;;;;;17.23;15.32;;;19.10;99.90;;;;;;5093806;28;20059;-78
2023/04/22 11:27:43;;;;;;;17.13;15.32;;;19.00;99.90;;;;;;5092239;28;20052;-78
2023/04/22 11:30:15;;;;;;;18.05;16.13;;;19.10;99.90;;;;;;5093802;28;20055;-78
2023/04/22 11:32:42;;;;;;;17.27;15.50;;;18.90;99.90;;;;;;5092633;28;20056;-78
2023/04/22 11:35:15;;;;;;;17.50;15.70;;;18.90;99.90;;;;;;5093788;28;20044;-78
2023/04/22 11:37:45;;;;;;;17.33;15.50;;;19.10;99.90;;;;;;5093573;28;20044;-78
2023/04/22 11:40:17;;;;;;;17.00;15.15;;;19.30;99.90;;;;;;5093814;28;20044;-78
2023/04/22 11:42:43;;;;;;;16.38;14.68;;;19.40;99.90;;;;;;5093795;28;20040;-78
2023/04/22 11:45:12;;;;;;;16.63;14.93;;;19.30;99.90;;;;;;5092253;28;20048;-78
2023/04/22 11:47:38;;;;;;;17.63;14.95;;;19.50;99.90;;;;;;5093621;28;20048;-78
2023/04/22 11:50:08;;;;;;;16.60;14.05;;;19.40;99.90;;;;;;5093569;28;20047;-78
2023/04/22 11:53:11;;;;;;;17.38;15.48;;;19.50;99.90;;;;;;5093726;28;20522;-78
2023/04/22 11:55:39;;;;;;;17.98;16.15;;;19.50;99.90;;;;;;5080496;28;20052;-78
2023/04/22 11:58:15;;;;;;;17.73;15.10;;;19.50;99.90;;;;;;5093557;28;20089;-78
2023/04/22 12:00:44;;;;;;;17.83;15.85;;;19.30;99.90;;;;;;5093583;28;20040;-78
2023/04/22 12:03:17;;;;;;;18.30;16.40;;;19.40;99.90;;;;;;5093558;28;20040;-79
2023/04/22 12:05:45;;;;;;;18.67;16.83;;;19.30;99.90;;;;;;5093315;28;20098;-79
2023/04/22 12:08:13;;;;;;;18.25;16.42;;;19.30;99.90;;;;;;5093104;28;20052;-78
2023/04/22 12:10:48;;;;;;;17.75;15.95;;;19.30;99.90;;;;;;5092260;28;20188;-78
2023/04/22 12:13:22;;;;;;;18.63;16.63;;;19.10;99.90;;;;;;5093411;28;20040;-78
2023/04/22 12:15:52;;;;;;;18.90;16.52;;;19.10;99.90;;;;;;5093435;28;20044;-79
2023/04/22 12:18:34;;;;;;;18.35;16.50;;;19.10;99.90;;;;;;5093146;28;20071;-78
2023/04/22 12:21:07;;;;;;;19.10;17.05;;;19.00;99.90;;;;;;5093211;28;20040;-78
2023/04/22 12:24:05;;;;;;;18.35;16.45;;;18.90;99.90;;;;;;5092987;28;20075;-78
2023/04/22 12:26:31;;;;;;;18.13;16.25;;;18.80;99.90;;;;;;5091860;28;20048;-78
2023/04/22 12:28:58;;;;;;;17.38;15.60;;;18.90;99.90;;;;;;5091684;28;20048;-78
2023/04/22 12:31:24;;;;;;;18.60;15.10;;;18.90;99.90;;;;;;5091995;28;20165;-78